< < Back
Terminal Aerodrome Forecast


Current Version              Previous Versions:   1  2  3  4  5  6  7  8  9  

Terminal Aerodrome Forecast

869
FTUS42 KJAX 281633 AAB
TAFJAX
TAF AMD
KJAX 281633Z 2817/2912 09008KT P6SM VCSH BKN030 BKN060 BKN250
     FM281800 08010G15KT P6SM VCTS SCT020 BKN030CB BKN200
      TEMPO 2818/2822 VRB20G30KT 3SM +TSRA BR
     FM282300 08006KT P6SM VCSH SCT025 BKN050=



Latest METAR

026
SAUS80 KWBC 290300
MTRJAX
METAR KJAX 290256Z 04006KT 10SM FEW025 FEW150 OVC250 23/22 A3009 RMK AO2
SLP190 T02330222 50013


USA.gov is the U.S. government's official web portal to all federal, state and local government web resources and services.